メインページ
METAR-TAF:

METAR-TAF

空港 :

パリチャールズ・ドゴール, フランス

パリ=シャルル・ド・ゴール空港

緯度: 49-01N, 経度: 002-32E, 海抜: 118m

現時点の気象観測

当レポートは36分前の04:30(UTC)に作成
の風 9kt
気温 14°C
湿度 94%
気圧 1011 hPa
視程10km以上
高度1100ftの雲はほとんどない
高度3000ftの千切れ雲あり

METAR: LFPG 210430Z 19009KT 9999 FEW011 BKN030 14/13 Q1011 BECMG 20015G25KT

時間: 07:06 (05:06 UTC)

予報

当レポートは6時間6分前の23:00(UTC)に作成
予報は21日の 00時(UTC)から 22日の 06時(UTC)まで有効
の風 10kt
視程10km以上
1,500メートル以下は雲なし、積乱雲なし
21日の 02時(UTC)から 21日の 05時(UTC)まで一時的に
視程: 4000m
高度800ftの千切れ雲あり
21日の 04時(UTC)から 21日の 06時(UTC)まで徐々に
南/南西の風 15kt、最大25ktの突風を伴う
確率 40% :
21日の 10時(UTC)から 21日の 17時(UTC)まで一時的に
西の風 20kt、最大35ktの突風を伴う
視程: 3500m
高度2500ftの雲は散在している, 塔状積雲.
にわか雨
確率 30% :
21日の 14時(UTC)から 21日の 16時(UTC)まで一時的に
高度3500ftの雲は散在している, 積乱雲.

TAF: LFPG 202300Z 2100/2206 18010KT CAVOK TEMPO 2102/2105 4000 RA BKN008 BECMG 2104/2106 21015G25KT PROB40 TEMPO 2110/2117 26020G35KT 3500 SHRA SCT025TCU PROB30 TEMPO 2114/2116 SCT035CB TX17/2108Z TN10/2206Z

4,000以上の空港の気象観測と天気予報(METAR報とTAF報)

利用可能な観測所は地図上に黄色い丸と赤い丸で示す。

丸の上にカーソルを重ねると観測所名を参照できる。

次にクリックすると気象観測と天気予報を参照できる。

マップの切り替え:黒色「×」印の緑ボタンをクリックして拡大、「-」印の緑ボタンをクリックして縮小、緑色の三角印をクリックして隣りの地図に切り替え


METAR-TAF: